Last 48 Hours

Stanford Met Tower

Hourly Data | America/Los_Angeles
as of 5/8/26 12:24 AM PDT
Date & Time Temp (°F) RH (%) Dew Pt (°F) Wind Dir (°) Wind Spd (mph) Wind Gust (mph) Solar Rad (W/m2) Pressure (mb) NowCast AQI Value (AQI) NowCast AQI Status Latest Rain (In) Daily Rain (In) Daily Min Temp (°F) Daily Max Temp (°F)
5/8/26 - 0000 53.6 94 52.8 WNW | 284 1.5 5.1 0 1,021.1 9 Good 0.00 0.00 52.2 67.9
5/7/26 - 2300 52.7 94 51.9 SSE | 148 2.1 5.5 0 1,021.0 9 Good 0.00 0.00 52.2 67.9
5/7/26 - 2200 54.4 90 52.4 S | 175 2.6 4.4 0 1,020.7 10 Good 0.00 0.00 52.8 67.9
5/7/26 - 2100 58.4 78 52.5 E | 101 3.2 5.9 1 1,020.0 11 Good 0.00 0.00 54.3 67.9
5/7/26 - 2000 61.0 71 52.3 NNE | 33 3.7 7.6 70 1,019.1 14 Good 0.00 0.00 54.3 67.9
5/7/26 - 1900 64.1 63 52.2 NNE | 25 5.6 11.8 258 1,018.8 14 Good 0.00 0.00 54.3 67.9
5/7/26 - 1800 66.6 64 54.9 NNE | 29 6.2 12.8 462 1,018.3 15 Good 0.00 0.00 54.3 67.9
5/7/26 - 1700 66.4 66 55.6 NNE | 14 6.6 13.6 647 1,018.2 16 Good 0.00 0.00 54.3 67.6
5/7/26 - 1600 66.4 68 56.5 N | 3 6.3 11.3 800 1,018.2 17 Good 0.00 0.00 54.3 67.6
5/7/26 - 1500 65.3 70 56.3 NNE | 12 7.1 12.9 902 1,018.5 20 Good 0.00 0.00 54.3 66.5
5/7/26 - 1400 64.6 71 55.8 N | 11 6.2 12.0 949 1,019.1 22 Good 0.00 0.00 54.3 66.5
5/7/26 - 1300 64.5 70 55.5 NNE | 13 3.8 10.6 926 1,019.8 22 Good 0.00 0.00 54.3 66.1
5/7/26 - 1200 60.6 78 54.6 WNW | 300 1.9 5.9 726 1,020.8 20 Good 0.00 0.00 54.3 63.8
5/7/26 - 1100 57.3 86 54.0 NW | 326 2.1 5.3 288 1,021.7 17 Good 0.00 0.00 54.3 58.9
5/7/26 - 1000 56.0 88 53.5 N | 356 2.0 5.9 164 1,021.9 15 Good 0.00 0.00 54.3 57.9
5/7/26 - 0900 55.0 89 52.9 N | 359 2.5 4.7 95 1,021.9 13 Good 0.00 0.00 54.3 57.9
5/7/26 - 0800 54.5 89 52.3 N | 355 2.1 5.2 42 1,021.9 13 Good 0.00 0.00 54.3 57.9
5/7/26 - 0700 54.5 89 52.2 N | 358 2.9 5.2 8 1,021.7 12 Good 0.00 0.00 54.3 57.9
5/7/26 - 0600 54.8 89 52.6 N | 0 2.4 4.8 0 1,021.4 12 Good 0.00 0.00 54.6 57.9
5/7/26 - 0500 55.3 91 53.6 NNE | 24 2.8 4.5 0 1,021.3 12 Good 0.00 0.00 55.0 57.9
5/7/26 - 0400 55.6 91 54.0 NE | 55 2.3 5.4 0 1,021.4 13 Good 0.00 0.00 55.2 57.9
5/7/26 - 0300 56.6 90 54.6 SSE | 153 2.2 6.9 0 1,021.3 13 Good 0.00 0.00 56.3 57.9
5/7/26 - 0200 57.0 88 54.6 SSE | 163 2.3 7.5 0 1,021.7 11 Good 0.00 0.00 56.4 57.9
5/7/26 - 0100 56.9 88 54.5 S | 182 1.7 4.9 0 1,021.8 10 Good 0.00 0.00 49.7 72.8
5/7/26 - 0000 55.6 91 53.9 ESE | 111 1.8 4.7 0 1,021.9 10 Good 0.00 0.00 49.7 72.8
5/6/26 - 2300 55.3 89 53.3 ENE | 76 2.4 5.2 0 1,022.0 9 Good 0.00 0.00 49.7 72.8
5/6/26 - 2200 57.0 85 53.5 NE | 43 2.8 5.1 0 1,022.0 10 Good 0.00 0.00 49.7 72.8
5/6/26 - 2100 60.6 75 53.6 NNE | 21 3.0 5.9 1 1,021.2 10 Good 0.00 0.00 49.7 72.8
5/6/26 - 2000 66.2 64 54.6 W | 259 3.0 8.6 62 1,020.2 10 Good 0.00 0.00 49.7 72.8
5/6/26 - 1900 69.4 59 55.7 N | 349 4.6 10.2 233 1,019.5 9 Good 0.00 0.00 49.7 72.8
5/6/26 - 1800 70.6 58 56.0 NNW | 337 6.3 12.9 436 1,019.3 9 Good 0.00 0.00 49.7 72.8
5/6/26 - 1700 70.8 57 55.6 NNW | 348 8.2 14.4 624 1,019.2 8 Good 0.00 0.00 49.7 72.8
5/6/26 - 1600 71.3 55 55.3 N | 351 6.4 14.0 769 1,019.0 8 Good 0.00 0.00 49.7 72.8
5/6/26 - 1500 70.9 55 55.1 NNE | 27 4.6 10.7 876 1,019.3 9 Good 0.00 0.00 49.7 72.8
5/6/26 - 1400 68.7 59 55.0 N | 8 4.1 10.8 914 1,020.0 9 Good 0.00 0.00 49.7 70.6
5/6/26 - 1300 66.0 64 54.5 N | 350 5.0 10.6 917 1,020.9 8 Good 0.00 0.00 49.7 68.9
5/6/26 - 1200 63.9 66 53.3 NNW | 341 2.8 8.5 822 1,021.7 7 Good 0.00 0.00 49.7 66.5
5/6/26 - 1100 60.5 72 52.4 E | 87 1.5 5.1 520 1,022.4 6 Good 0.00 0.00 49.7 65.2
5/6/26 - 1000 58.0 77 51.9 WNW | 286 1.2 3.1 180 1,023.2 6 Good 0.00 0.00 49.7 59.7
5/6/26 - 0900 56.5 81 51.8 WNW | 298 1.3 4.6 95 1,023.3 5 Good 0.00 0.00 49.7 57.6
5/6/26 - 0800 54.7 90 52.7 WNW | 290 1.5 3.7 49 1,023.2 5 Good 0.00 0.00 49.7 57.4
5/6/26 - 0700 52.3 96 52.3 W | 268 1.9 4.0 10 1,023.1 4 Good 0.00 0.00 49.7 57.4
5/6/26 - 0600 50.6 97 50.7 W | 259 2.2 4.4 0 1,022.6 4 Good 0.00 0.00 49.7 57.4
5/6/26 - 0500 50.9 95 50.6 WSW | 253 1.8 4.0 0 1,022.3 3 Good 0.00 0.00 50.0 57.4
5/6/26 - 0400 53.2 90 51.2 NW | 323 0.7 2.4 0 1,021.8 3 Good 0.00 0.00 51.8 57.4
5/6/26 - 0300 55.8 84 52.2 WNW | 284 0.1 1.8 0 1,021.5 3 Good 0.00 0.00 55.0 57.4
5/6/26 - 0200 56.8 82 52.2 NNE | 28 0.8 2.7 0 1,021.4 3 Good 0.00 0.00 56.2 57.4
5/6/26 - 0100 56.8 79 51.2 ENE | 59 0.6 2.1 0 1,021.5 3 Good 0.00 0.01 51.0 63.5
5/6/26 - 0000 57.1 76 50.6 SW | 215 1.2 3.3 0 1,021.0 2 Good 0.00 0.01 51.0 63.5
Max 71.3 97 56.5 - 8.2 14.4 949 1,023.3 22 - 0.00 0.01 56.4 72.8
Avg 59.6 79 53.5 - 3.1 7.0 262 1,020.9 10 - 0.00 - - -
Min 50.6 55 50.6 - 0.1 1.8 0 1,018.2 2 - 0.00 0.00 49.7 57.4
Total - - - - - - - - - - 0.00 - - -